Terminal Aerodrome Forecast
Issued by NWS

Home | Current Version | Previous Version | Text Only | Print | Product List | Glossary Off
Versions: 1 2 3 4 5 6 7 8 9 10 11 12 13 14 15 16 17

000
FTUS43 KICT 170526
TAFCNU
TAF
KCNU 170526Z 1706/1806 09006KT P6SM SCT020 BKN200
     FM170800 10005KT 4SM BR BKN015 BKN250
      TEMPO 1709/1713 2SM BR BKN009
     FM171600 16006KT P6SM BKN025
     FM171800 16010KT P6SM SCT020 BKN035=

USA.gov is the U.S. government's official web portal to all federal, state and local government web resources and services.